sensor_id;sensor_type;location;lat;lon;timestamp;temperature;humidity
13148;DHT22;6639;50.956;4.242;2023-04-24T00:00:54;13.40;99.90
13148;DHT22;6639;50.956;4.242;2023-04-24T00:03:23;13.50;99.90
13148;DHT22;6639;50.956;4.242;2023-04-24T00:05:50;13.50;99.90
13148;DHT22;6639;50.956;4.242;2023-04-24T00:08:17;13.50;99.90
13148;DHT22;6639;50.956;4.242;2023-04-24T00:10:45;13.70;99.90
13148;DHT22;6639;50.956;4.242;2023-04-24T00:13:13;13.70;99.90
13148;DHT22;6639;50.956;4.242;2023-04-24T00:15:40;13.90;99.90
13148;DHT22;6639;50.956;4.242;2023-04-24T00:18:07;13.90;99.90
13148;DHT22;6639;50.956;4.242;2023-04-24T00:20:34;14.00;99.90
13148;DHT22;6639;50.956;4.242;2023-04-24T00:23:01;13.80;99.90
13148;DHT22;6639;50.956;4.242;2023-04-24T00:25:28;13.90;99.90
13148;DHT22;6639;50.956;4.242;2023-04-24T00:27:55;13.60;99.90
13148;DHT22;6639;50.956;4.242;2023-04-24T00:30:23;13.60;99.90
13148;DHT22;6639;50.956;4.242;2023-04-24T00:32:50;13.90;99.90
13148;DHT22;6639;50.956;4.242;2023-04-24T00:35:17;14.00;99.90
13148;DHT22;6639;50.956;4.242;2023-04-24T00:37:45;14.00;99.90
13148;DHT22;6639;50.956;4.242;2023-04-24T00:40:12;13.90;99.90
13148;DHT22;6639;50.956;4.242;2023-04-24T00:42:40;14.20;99.90
13148;DHT22;6639;50.956;4.242;2023-04-24T00:45:07;13.80;99.90
13148;DHT22;6639;50.956;4.242;2023-04-24T00:47:36;13.70;99.90
13148;DHT22;6639;50.956;4.242;2023-04-24T00:50:05;13.60;99.90
13148;DHT22;6639;50.956;4.242;2023-04-24T00:52:32;13.90;99.90
13148;DHT22;6639;50.956;4.242;2023-04-24T00:54:59;13.90;99.90
13148;DHT22;6639;50.956;4.242;2023-04-24T00:57:26;13.70;99.90
13148;DHT22;6639;50.956;4.242;2023-04-24T00:59:54;13.70;99.90
13148;DHT22;6639;50.956;4.242;2023-04-24T01:02:22;13.60;99.90
13148;DHT22;6639;50.956;4.242;2023-04-24T01:04:51;13.90;99.90
13148;DHT22;6639;50.956;4.242;2023-04-24T01:07:19;13.70;99.90
13148;DHT22;6639;50.956;4.242;2023-04-24T01:09:48;13.90;99.90
13148;DHT22;6639;50.956;4.242;2023-04-24T01:12:17;13.70;99.90
13148;DHT22;6639;50.956;4.242;2023-04-24T01:14:44;13.80;99.90
13148;DHT22;6639;50.956;4.242;2023-04-24T01:17:11;13.70;99.90
13148;DHT22;6639;50.956;4.242;2023-04-24T01:19:38;13.80;99.90
13148;DHT22;6639;50.956;4.242;2023-04-24T01:22:10;13.70;99.90
13148;DHT22;6639;50.956;4.242;2023-04-24T01:24:37;13.60;99.90
13148;DHT22;6639;50.956;4.242;2023-04-24T01:27:05;13.70;99.90
13148;DHT22;6639;50.956;4.242;2023-04-24T01:29:31;13.70;99.90
13148;DHT22;6639;50.956;4.242;2023-04-24T01:31:59;13.30;99.90
13148;DHT22;6639;50.956;4.242;2023-04-24T01:34:26;13.30;99.90
13148;DHT22;6639;50.956;4.242;2023-04-24T01:36:53;13.30;99.90
13148;DHT22;6639;50.956;4.242;2023-04-24T01:39:23;13.40;99.90
13148;DHT22;6639;50.956;4.242;2023-04-24T01:41:51;13.50;99.90
13148;DHT22;6639;50.956;4.242;2023-04-24T01:44:19;13.20;99.90
13148;DHT22;6639;50.956;4.242;2023-04-24T01:46:46;13.00;99.90
13148;DHT22;6639;50.956;4.242;2023-04-24T01:49:13;12.70;99.90
13148;DHT22;6639;50.956;4.242;2023-04-24T01:51:41;12.60;99.90
13148;DHT22;6639;50.956;4.242;2023-04-24T01:54:07;12.80;99.90
13148;DHT22;6639;50.956;4.242;2023-04-24T01:56:36;12.90;99.90
13148;DHT22;6639;50.956;4.242;2023-04-24T01:59:07;13.00;99.90
13148;DHT22;6639;50.956;4.242;2023-04-24T02:01:36;13.10;99.90
13148;DHT22;6639;50.956;4.242;2023-04-24T02:04:03;13.30;99.90
13148;DHT22;6639;50.956;4.242;2023-04-24T02:06:30;13.00;99.90
13148;DHT22;6639;50.956;4.242;2023-04-24T02:08:57;12.90;99.90
13148;DHT22;6639;50.956;4.242;2023-04-24T02:11:24;12.60;99.90
13148;DHT22;6639;50.956;4.242;2023-04-24T02:13:53;12.70;99.90
13148;DHT22;6639;50.956;4.242;2023-04-24T02:16:20;12.80;99.90
13148;DHT22;6639;50.956;4.242;2023-04-24T02:18:47;12.80;99.90
13148;DHT22;6639;50.956;4.242;2023-04-24T02:21:14;13.10;99.90
13148;DHT22;6639;50.956;4.242;2023-04-24T02:23:40;13.00;99.90
13148;DHT22;6639;50.956;4.242;2023-04-24T02:26:07;13.00;99.90
13148;DHT22;6639;50.956;4.242;2023-04-24T02:28:35;12.90;99.90
13148;DHT22;6639;50.956;4.242;2023-04-24T02:31:03;13.00;99.90
13148;DHT22;6639;50.956;4.242;2023-04-24T02:33:30;13.10;99.90
13148;DHT22;6639;50.956;4.242;2023-04-24T02:35:57;12.80;99.90
13148;DHT22;6639;50.956;4.242;2023-04-24T02:38:25;13.20;99.90
13148;DHT22;6639;50.956;4.242;2023-04-24T02:40:51;13.20;99.90
13148;DHT22;6639;50.956;4.242;2023-04-24T02:43:18;13.30;99.90
13148;DHT22;6639;50.956;4.242;2023-04-24T02:45:45;13.20;99.90
13148;DHT22;6639;50.956;4.242;2023-04-24T02:48:14;13.30;99.90
13148;DHT22;6639;50.956;4.242;2023-04-24T02:50:41;13.30;99.90
13148;DHT22;6639;50.956;4.242;2023-04-24T02:53:07;13.40;99.90
13148;DHT22;6639;50.956;4.242;2023-04-24T02:55:34;13.10;99.90
13148;DHT22;6639;50.956;4.242;2023-04-24T02:58:01;13.00;99.90
13148;DHT22;6639;50.956;4.242;2023-04-24T03:00:28;12.70;99.90
13148;DHT22;6639;50.956;4.242;2023-04-24T03:02:55;12.80;99.90
13148;DHT22;6639;50.956;4.242;2023-04-24T03:05:23;12.90;99.90
13148;DHT22;6639;50.956;4.242;2023-04-24T03:07:50;12.80;99.90
13148;DHT22;6639;50.956;4.242;2023-04-24T03:10:18;12.40;99.90
13148;DHT22;6639;50.956;4.242;2023-04-24T03:12:45;12.50;99.90
13148;DHT22;6639;50.956;4.242;2023-04-24T03:15:12;13.00;99.90
13148;DHT22;6639;50.956;4.242;2023-04-24T03:17:39;13.20;99.90
13148;DHT22;6639;50.956;4.242;2023-04-24T03:20:07;13.10;99.90
13148;DHT22;6639;50.956;4.242;2023-04-24T03:22:36;13.50;99.90
13148;DHT22;6639;50.956;4.242;2023-04-24T03:25:03;14.00;99.90
13148;DHT22;6639;50.956;4.242;2023-04-24T03:27:30;14.10;99.90
13148;DHT22;6639;50.956;4.242;2023-04-24T03:29:57;14.00;99.90
13148;DHT22;6639;50.956;4.242;2023-04-24T03:32:24;13.90;99.90
13148;DHT22;6639;50.956;4.242;2023-04-24T03:34:51;14.00;99.90
13148;DHT22;6639;50.956;4.242;2023-04-24T03:37:18;13.80;99.90
13148;DHT22;6639;50.956;4.242;2023-04-24T03:39:46;14.20;99.90
13148;DHT22;6639;50.956;4.242;2023-04-24T03:42:13;14.00;99.90
13148;DHT22;6639;50.956;4.242;2023-04-24T03:44:40;14.20;99.90
13148;DHT22;6639;50.956;4.242;2023-04-24T03:47:07;13.60;99.90
13148;DHT22;6639;50.956;4.242;2023-04-24T03:49:34;13.30;99.90
13148;DHT22;6639;50.956;4.242;2023-04-24T03:52:01;13.60;99.90
13148;DHT22;6639;50.956;4.242;2023-04-24T03:54:28;13.40;99.90
13148;DHT22;6639;50.956;4.242;2023-04-24T03:56:56;13.70;99.90
13148;DHT22;6639;50.956;4.242;2023-04-24T03:59:23;13.90;99.90
13148;DHT22;6639;50.956;4.242;2023-04-24T04:01:50;13.90;99.90
13148;DHT22;6639;50.956;4.242;2023-04-24T04:04:17;13.80;99.90
13148;DHT22;6639;50.956;4.242;2023-04-24T04:06:44;13.90;99.90
13148;DHT22;6639;50.956;4.242;2023-04-24T04:09:11;13.50;99.90
13148;DHT22;6639;50.956;4.242;2023-04-24T04:11:38;13.10;99.90
13148;DHT22;6639;50.956;4.242;2023-04-24T04:14:07;13.30;99.90
13148;DHT22;6639;50.956;4.242;2023-04-24T04:16:34;13.60;99.90
13148;DHT22;6639;50.956;4.242;2023-04-24T04:19:01;13.20;99.90
13148;DHT22;6639;50.956;4.242;2023-04-24T04:21:28;13.30;99.90
13148;DHT22;6639;50.956;4.242;2023-04-24T04:23:56;13.10;99.90
13148;DHT22;6639;50.956;4.242;2023-04-24T04:26:23;13.30;99.90
13148;DHT22;6639;50.956;4.242;2023-04-24T04:28:51;13.20;99.90
13148;DHT22;6639;50.956;4.242;2023-04-24T04:31:19;13.10;99.90
13148;DHT22;6639;50.956;4.242;2023-04-24T04:33:46;13.00;99.90
13148;DHT22;6639;50.956;4.242;2023-04-24T04:36:13;13.00;99.90
13148;DHT22;6639;50.956;4.242;2023-04-24T04:38:40;12.70;99.90
13148;DHT22;6639;50.956;4.242;2023-04-24T04:41:08;12.90;99.90
13148;DHT22;6639;50.956;4.242;2023-04-24T04:43:35;13.40;99.90
13148;DHT22;6639;50.956;4.242;2023-04-24T04:46:02;13.60;99.90
13148;DHT22;6639;50.956;4.242;2023-04-24T04:48:31;13.50;99.90
13148;DHT22;6639;50.956;4.242;2023-04-24T04:50:58;13.40;99.90
13148;DHT22;6639;50.956;4.242;2023-04-24T04:53:25;13.20;99.90
13148;DHT22;6639;50.956;4.242;2023-04-24T04:55:52;13.40;99.90
13148;DHT22;6639;50.956;4.242;2023-04-24T04:58:19;13.40;99.90
13148;DHT22;6639;50.956;4.242;2023-04-24T05:00:46;13.30;99.90
13148;DHT22;6639;50.956;4.242;2023-04-24T05:03:13;13.40;99.90
13148;DHT22;6639;50.956;4.242;2023-04-24T05:05:41;13.50;99.90
13148;DHT22;6639;50.956;4.242;2023-04-24T05:08:08;13.50;99.90
13148;DHT22;6639;50.956;4.242;2023-04-24T05:10:35;13.60;99.90
13148;DHT22;6639;50.956;4.242;2023-04-24T05:13:02;13.30;99.90
13148;DHT22;6639;50.956;4.242;2023-04-24T05:15:30;13.30;99.90
13148;DHT22;6639;50.956;4.242;2023-04-24T05:17:56;13.40;99.90
13148;DHT22;6639;50.956;4.242;2023-04-24T05:20:23;13.20;99.90
13148;DHT22;6639;50.956;4.242;2023-04-24T05:22:52;13.50;99.90
13148;DHT22;6639;50.956;4.242;2023-04-24T05:25:19;13.60;99.90
13148;DHT22;6639;50.956;4.242;2023-04-24T05:27:46;13.50;99.90
13148;DHT22;6639;50.956;4.242;2023-04-24T05:30:13;13.70;99.90
13148;DHT22;6639;50.956;4.242;2023-04-24T05:32:40;13.50;99.90
13148;DHT22;6639;50.956;4.242;2023-04-24T05:35:08;13.20;99.90
13148;DHT22;6639;50.956;4.242;2023-04-24T05:37:35;13.30;99.90
13148;DHT22;6639;50.956;4.242;2023-04-24T05:40:04;13.40;99.90
13148;DHT22;6639;50.956;4.242;2023-04-24T05:42:31;13.40;99.90
13148;DHT22;6639;50.956;4.242;2023-04-24T05:44:58;13.40;99.90
13148;DHT22;6639;50.956;4.242;2023-04-24T05:47:25;13.30;99.90
13148;DHT22;6639;50.956;4.242;2023-04-24T05:49:52;13.20;99.90
13148;DHT22;6639;50.956;4.242;2023-04-24T05:52:19;13.30;99.90
13148;DHT22;6639;50.956;4.242;2023-04-24T05:54:46;13.10;99.90
13148;DHT22;6639;50.956;4.242;2023-04-24T05:57:14;13.00;99.90
13148;DHT22;6639;50.956;4.242;2023-04-24T05:59:41;13.00;99.90
13148;DHT22;6639;50.956;4.242;2023-04-24T06:02:08;12.90;99.90
13148;DHT22;6639;50.956;4.242;2023-04-24T06:04:35;12.90;99.90
13148;DHT22;6639;50.956;4.242;2023-04-24T06:07:02;13.00;99.90
13148;DHT22;6639;50.956;4.242;2023-04-24T06:09:29;13.10;99.90
13148;DHT22;6639;50.956;4.242;2023-04-24T06:11:56;13.20;99.90
13148;DHT22;6639;50.956;4.242;2023-04-24T06:14:25;13.00;99.90
13148;DHT22;6639;50.956;4.242;2023-04-24T06:16:52;13.30;99.90
13148;DHT22;6639;50.956;4.242;2023-04-24T06:19:19;13.30;99.90
13148;DHT22;6639;50.956;4.242;2023-04-24T06:21:46;13.10;99.90
13148;DHT22;6639;50.956;4.242;2023-04-24T06:24:14;12.90;99.90
13148;DHT22;6639;50.956;4.242;2023-04-24T06:26:41;13.00;99.90
13148;DHT22;6639;50.956;4.242;2023-04-24T06:29:08;12.90;99.90
13148;DHT22;6639;50.956;4.242;2023-04-24T06:31:37;12.80;99.90
13148;DHT22;6639;50.956;4.242;2023-04-24T06:34:04;13.20;99.90
13148;DHT22;6639;50.956;4.242;2023-04-24T06:36:31;13.10;99.90
13148;DHT22;6639;50.956;4.242;2023-04-24T06:39:00;13.10;99.90
13148;DHT22;6639;50.956;4.242;2023-04-24T06:41:27;13.00;99.90
13148;DHT22;6639;50.956;4.242;2023-04-24T06:43:54;13.10;99.90
13148;DHT22;6639;50.956;4.242;2023-04-24T06:46:22;13.10;99.90
13148;DHT22;6639;50.956;4.242;2023-04-24T06:48:52;13.20;99.90
13148;DHT22;6639;50.956;4.242;2023-04-24T06:51:22;13.10;99.90
13148;DHT22;6639;50.956;4.242;2023-04-24T06:53:52;13.20;99.90
13148;DHT22;6639;50.956;4.242;2023-04-24T06:56:19;13.00;99.90
13148;DHT22;6639;50.956;4.242;2023-04-24T06:58:46;12.80;99.90
13148;DHT22;6639;50.956;4.242;2023-04-24T07:01:13;12.90;99.90
13148;DHT22;6639;50.956;4.242;2023-04-24T07:03:40;13.20;99.90
13148;DHT22;6639;50.956;4.242;2023-04-24T07:06:09;13.30;99.90
13148;DHT22;6639;50.956;4.242;2023-04-24T07:08:36;13.50;99.90
13148;DHT22;6639;50.956;4.242;2023-04-24T07:11:03;13.60;99.90
13148;DHT22;6639;50.956;4.242;2023-04-24T07:13:31;13.50;99.90
13148;DHT22;6639;50.956;4.242;2023-04-24T07:15:58;13.60;99.90
13148;DHT22;6639;50.956;4.242;2023-04-24T07:18:25;13.50;99.90
13148;DHT22;6639;50.956;4.242;2023-04-24T07:20:51;13.40;99.90
13148;DHT22;6639;50.956;4.242;2023-04-24T07:23:20;13.40;99.90
13148;DHT22;6639;50.956;4.242;2023-04-24T07:25:47;13.70;99.90
13148;DHT22;6639;50.956;4.242;2023-04-24T07:28:14;13.50;99.90
13148;DHT22;6639;50.956;4.242;2023-04-24T07:30:41;13.80;99.90
13148;DHT22;6639;50.956;4.242;2023-04-24T07:33:08;13.60;99.90
13148;DHT22;6639;50.956;4.242;2023-04-24T07:35:36;13.80;99.90
13148;DHT22;6639;50.956;4.242;2023-04-24T07:38:03;13.90;99.90
13148;DHT22;6639;50.956;4.242;2023-04-24T07:40:32;13.70;99.90
13148;DHT22;6639;50.956;4.242;2023-04-24T07:42:59;14.00;99.90
13148;DHT22;6639;50.956;4.242;2023-04-24T07:45:26;14.30;99.90
13148;DHT22;6639;50.956;4.242;2023-04-24T07:47:53;14.20;99.90
13148;DHT22;6639;50.956;4.242;2023-04-24T07:50:20;14.20;99.90
13148;DHT22;6639;50.956;4.242;2023-04-24T07:52:48;14.10;99.90
13148;DHT22;6639;50.956;4.242;2023-04-24T07:55:15;13.80;99.90
13148;DHT22;6639;50.956;4.242;2023-04-24T07:57:43;13.60;99.90
13148;DHT22;6639;50.956;4.242;2023-04-24T08:00:11;14.20;99.90
13148;DHT22;6639;50.956;4.242;2023-04-24T08:02:38;14.40;99.90
13148;DHT22;6639;50.956;4.242;2023-04-24T08:05:06;14.00;99.90
13148;DHT22;6639;50.956;4.242;2023-04-24T08:07:33;14.00;99.90
13148;DHT22;6639;50.956;4.242;2023-04-24T08:10:01;14.00;99.90
13148;DHT22;6639;50.956;4.242;2023-04-24T08:12:28;13.80;99.90
13148;DHT22;6639;50.956;4.242;2023-04-24T08:14:56;14.50;99.90
13148;DHT22;6639;50.956;4.242;2023-04-24T08:17:24;14.90;99.90
13148;DHT22;6639;50.956;4.242;2023-04-24T08:19:51;15.00;99.90
13148;DHT22;6639;50.956;4.242;2023-04-24T08:22:24;15.50;99.90
13148;DHT22;6639;50.956;4.242;2023-04-24T08:24:51;16.20;99.90
13148;DHT22;6639;50.956;4.242;2023-04-24T08:27:18;16.50;99.90
13148;DHT22;6639;50.956;4.242;2023-04-24T08:29:45;16.10;99.90
13148;DHT22;6639;50.956;4.242;2023-04-24T08:32:14;16.00;99.90
13148;DHT22;6639;50.956;4.242;2023-04-24T08:34:41;15.20;99.90
13148;DHT22;6639;50.956;4.242;2023-04-24T08:37:08;15.20;99.90
13148;DHT22;6639;50.956;4.242;2023-04-24T08:39:34;15.10;99.90
13148;DHT22;6639;50.956;4.242;2023-04-24T08:42:01;15.20;99.90
13148;DHT22;6639;50.956;4.242;2023-04-24T08:44:34;14.60;99.90
13148;DHT22;6639;50.956;4.242;2023-04-24T08:47:02;14.40;99.90
13148;DHT22;6639;50.956;4.242;2023-04-24T08:49:31;14.50;99.90
13148;DHT22;6639;50.956;4.242;2023-04-24T08:51:58;15.30;99.90
13148;DHT22;6639;50.956;4.242;2023-04-24T08:54:26;15.80;99.90
13148;DHT22;6639;50.956;4.242;2023-04-24T08:56:54;16.60;99.90
13148;DHT22;6639;50.956;4.242;2023-04-24T08:59:26;17.00;99.90
13148;DHT22;6639;50.956;4.242;2023-04-24T09:01:55;17.10;99.90
13148;DHT22;6639;50.956;4.242;2023-04-24T09:04:23;17.10;99.90
13148;DHT22;6639;50.956;4.242;2023-04-24T09:06:51;17.40;99.90
13148;DHT22;6639;50.956;4.242;2023-04-24T09:09:21;17.00;99.90
13148;DHT22;6639;50.956;4.242;2023-04-24T09:11:49;17.20;99.90
13148;DHT22;6639;50.956;4.242;2023-04-24T09:14:17;16.50;99.90
13148;DHT22;6639;50.956;4.242;2023-04-24T09:16:44;15.60;99.90
13148;DHT22;6639;50.956;4.242;2023-04-24T09:19:11;15.60;99.90
13148;DHT22;6639;50.956;4.242;2023-04-24T09:21:38;15.70;99.90
13148;DHT22;6639;50.956;4.242;2023-04-24T09:24:14;16.20;99.90
13148;DHT22;6639;50.956;4.242;2023-04-24T09:26:43;16.80;99.90
13148;DHT22;6639;50.956;4.242;2023-04-24T09:29:14;17.20;99.90
13148;DHT22;6639;50.956;4.242;2023-04-24T09:31:42;17.70;99.90
13148;DHT22;6639;50.956;4.242;2023-04-24T09:34:09;17.50;99.90
13148;DHT22;6639;50.956;4.242;2023-04-24T09:36:37;17.40;99.90
13148;DHT22;6639;50.956;4.242;2023-04-24T09:39:07;17.60;99.90
13148;DHT22;6639;50.956;4.242;2023-04-24T09:41:43;17.20;99.90
13148;DHT22;6639;50.956;4.242;2023-04-24T09:44:12;16.50;99.90
13148;DHT22;6639;50.956;4.242;2023-04-24T09:46:40;16.20;99.90
13148;DHT22;6639;50.956;4.242;2023-04-24T09:49:08;16.10;99.90
13148;DHT22;6639;50.956;4.242;2023-04-24T09:51:37;16.20;99.90
13148;DHT22;6639;50.956;4.242;2023-04-24T09:54:14;16.40;99.90
13148;DHT22;6639;50.956;4.242;2023-04-24T09:56:43;15.90;99.90
13148;DHT22;6639;50.956;4.242;2023-04-24T09:59:11;16.00;99.90
13148;DHT22;6639;50.956;4.242;2023-04-24T10:01:38;16.20;99.90
13148;DHT22;6639;50.956;4.242;2023-04-24T10:04:15;16.00;99.90
13148;DHT22;6639;50.956;4.242;2023-04-24T10:06:43;15.90;99.90
13148;DHT22;6639;50.956;4.242;2023-04-24T10:09:10;16.00;99.90
13148;DHT22;6639;50.956;4.242;2023-04-24T10:11:42;16.00;99.90
13148;DHT22;6639;50.956;4.242;2023-04-24T10:14:11;16.00;99.90
13148;DHT22;6639;50.956;4.242;2023-04-24T10:16:40;16.20;99.90
13148;DHT22;6639;50.956;4.242;2023-04-24T10:19:07;16.20;99.90
13148;DHT22;6639;50.956;4.242;2023-04-24T10:21:35;16.30;99.90
13148;DHT22;6639;50.956;4.242;2023-04-24T10:24:03;16.10;99.90
13148;DHT22;6639;50.956;4.242;2023-04-24T10:26:33;16.10;99.90
13148;DHT22;6639;50.956;4.242;2023-04-24T10:29:02;16.30;99.90
13148;DHT22;6639;50.956;4.242;2023-04-24T10:31:31;16.20;99.90
13148;DHT22;6639;50.956;4.242;2023-04-24T10:34:00;16.10;99.90
13148;DHT22;6639;50.956;4.242;2023-04-24T10:36:29;15.90;99.90
13148;DHT22;6639;50.956;4.242;2023-04-24T10:39:00;15.60;99.90
13148;DHT22;6639;50.956;4.242;2023-04-24T10:41:27;16.00;99.90
13148;DHT22;6639;50.956;4.242;2023-04-24T10:44:07;16.30;99.90
13148;DHT22;6639;50.956;4.242;2023-04-24T10:46:35;16.20;99.90
13148;DHT22;6639;50.956;4.242;2023-04-24T10:49:07;16.30;99.90
13148;DHT22;6639;50.956;4.242;2023-04-24T10:51:46;16.60;99.90
13148;DHT22;6639;50.956;4.242;2023-04-24T10:54:24;16.70;99.90
13148;DHT22;6639;50.956;4.242;2023-04-24T10:56:52;17.10;99.90
13148;DHT22;6639;50.956;4.242;2023-04-24T10:59:27;17.20;99.90
13148;DHT22;6639;50.956;4.242;2023-04-24T11:01:54;17.50;99.90
13148;DHT22;6639;50.956;4.242;2023-04-24T11:04:32;17.40;99.90
13148;DHT22;6639;50.956;4.242;2023-04-24T11:07:00;17.70;99.90
13148;DHT22;6639;50.956;4.242;2023-04-24T11:09:28;17.80;99.90
13148;DHT22;6639;50.956;4.242;2023-04-24T11:12:03;17.40;99.90
13148;DHT22;6639;50.956;4.242;2023-04-24T11:15:00;17.10;99.90
13148;DHT22;6639;50.956;4.242;2023-04-24T11:17:29;17.00;99.90
13148;DHT22;6639;50.956;4.242;2023-04-24T11:20:01;16.80;99.90
13148;DHT22;6639;50.956;4.242;2023-04-24T11:22:31;16.50;99.90
13148;DHT22;6639;50.956;4.242;2023-04-24T11:25:00;16.30;99.90
13148;DHT22;6639;50.956;4.242;2023-04-24T11:27:30;16.70;99.90
13148;DHT22;6639;50.956;4.242;2023-04-24T11:30:04;17.20;99.90
13148;DHT22;6639;50.956;4.242;2023-04-24T11:32:35;16.70;99.90
13148;DHT22;6639;50.956;4.242;2023-04-24T11:35:05;16.40;99.90
13148;DHT22;6639;50.956;4.242;2023-04-24T11:37:35;16.50;99.90
13148;DHT22;6639;50.956;4.242;2023-04-24T11:40:04;16.70;99.90
13148;DHT22;6639;50.956;4.242;2023-04-24T11:42:35;16.90;99.90
13148;DHT22;6639;50.956;4.242;2023-04-24T11:45:08;16.80;99.90
13148;DHT22;6639;50.956;4.242;2023-04-24T11:47:35;16.80;99.90
13148;DHT22;6639;50.956;4.242;2023-04-24T11:50:04;17.00;99.90
13148;DHT22;6639;50.956;4.242;2023-04-24T11:52:32;17.00;99.90
13148;DHT22;6639;50.956;4.242;2023-04-24T11:55:00;16.80;99.90
13148;DHT22;6639;50.956;4.242;2023-04-24T11:57:27;17.00;99.90
13148;DHT22;6639;50.956;4.242;2023-04-24T11:59:59;17.40;99.90
13148;DHT22;6639;50.956;4.242;2023-04-24T12:02:27;17.10;99.90
13148;DHT22;6639;50.956;4.242;2023-04-24T12:04:54;16.80;99.90
13148;DHT22;6639;50.956;4.242;2023-04-24T12:07:22;16.80;99.90
13148;DHT22;6639;50.956;4.242;2023-04-24T12:09:55;17.00;99.90
13148;DHT22;6639;50.956;4.242;2023-04-24T12:12:25;17.00;99.90
13148;DHT22;6639;50.956;4.242;2023-04-24T12:14:53;17.20;99.90
13148;DHT22;6639;50.956;4.242;2023-04-24T12:17:26;17.50;99.90
13148;DHT22;6639;50.956;4.242;2023-04-24T12:19:57;17.90;99.90
13148;DHT22;6639;50.956;4.242;2023-04-24T12:22:25;17.90;99.90
13148;DHT22;6639;50.956;4.242;2023-04-24T12:24:56;17.70;99.90
13148;DHT22;6639;50.956;4.242;2023-04-24T12:27:24;17.70;99.90
13148;DHT22;6639;50.956;4.242;2023-04-24T12:29:52;17.30;99.90
13148;DHT22;6639;50.956;4.242;2023-04-24T12:32:19;17.00;99.90
13148;DHT22;6639;50.956;4.242;2023-04-24T12:34:47;17.00;99.90
13148;DHT22;6639;50.956;4.242;2023-04-24T12:37:16;17.20;99.90
13148;DHT22;6639;50.956;4.242;2023-04-24T12:39:57;17.20;99.90
13148;DHT22;6639;50.956;4.242;2023-04-24T12:42:26;17.40;99.90
13148;DHT22;6639;50.956;4.242;2023-04-24T12:44:56;17.60;99.90
13148;DHT22;6639;50.956;4.242;2023-04-24T12:47:24;17.80;99.90
13148;DHT22;6639;50.956;4.242;2023-04-24T12:49:52;18.10;99.90
13148;DHT22;6639;50.956;4.242;2023-04-24T12:52:21;18.20;99.90
13148;DHT22;6639;50.956;4.242;2023-04-24T12:54:48;18.30;99.90
13148;DHT22;6639;50.956;4.242;2023-04-24T12:57:14;18.20;99.90
13148;DHT22;6639;50.956;4.242;2023-04-24T12:59:41;18.00;99.90
13148;DHT22;6639;50.956;4.242;2023-04-24T13:02:09;18.10;99.90
13148;DHT22;6639;50.956;4.242;2023-04-24T13:04:36;18.60;99.90
13148;DHT22;6639;50.956;4.242;2023-04-24T13:07:05;19.10;99.90
13148;DHT22;6639;50.956;4.242;2023-04-24T13:09:33;19.10;99.90
13148;DHT22;6639;50.956;4.242;2023-04-24T13:12:01;19.30;99.90
13148;DHT22;6639;50.956;4.242;2023-04-24T13:14:28;19.40;99.90
13148;DHT22;6639;50.956;4.242;2023-04-24T13:16:56;19.30;99.60
13148;DHT22;6639;50.956;4.242;2023-04-24T13:19:40;19.40;99.70
13148;DHT22;6639;50.956;4.242;2023-04-24T13:22:09;19.40;99.90
13148;DHT22;6639;50.956;4.242;2023-04-24T13:24:37;19.10;99.90
13148;DHT22;6639;50.956;4.242;2023-04-24T13:27:06;19.60;99.90
13148;DHT22;6639;50.956;4.242;2023-04-24T13:29:34;19.40;99.90
13148;DHT22;6639;50.956;4.242;2023-04-24T13:32:01;19.20;99.90
13148;DHT22;6639;50.956;4.242;2023-04-24T13:34:31;19.20;99.90
13148;DHT22;6639;50.956;4.242;2023-04-24T13:37:02;19.10;99.90
13148;DHT22;6639;50.956;4.242;2023-04-24T13:39:31;18.80;99.90
13148;DHT22;6639;50.956;4.242;2023-04-24T13:41:58;18.50;99.90
13148;DHT22;6639;50.956;4.242;2023-04-24T13:44:26;18.90;99.90
13148;DHT22;6639;50.956;4.242;2023-04-24T13:46:54;18.80;99.90
13148;DHT22;6639;50.956;4.242;2023-04-24T13:49:23;19.20;99.90
13148;DHT22;6639;50.956;4.242;2023-04-24T13:51:52;19.10;99.90
13148;DHT22;6639;50.956;4.242;2023-04-24T13:54:21;19.50;99.90
13148;DHT22;6639;50.956;4.242;2023-04-24T13:56:51;19.70;99.50
13148;DHT22;6639;50.956;4.242;2023-04-24T13:59:19;19.70;99.90
13148;DHT22;6639;50.956;4.242;2023-04-24T14:01:47;20.10;99.90
13148;DHT22;6639;50.956;4.242;2023-04-24T14:04:14;20.00;99.90
13148;DHT22;6639;50.956;4.242;2023-04-24T14:06:41;20.20;99.50
13148;DHT22;6639;50.956;4.242;2023-04-24T14:09:08;20.50;99.00
13148;DHT22;6639;50.956;4.242;2023-04-24T14:11:35;20.70;97.80
13148;DHT22;6639;50.956;4.242;2023-04-24T14:14:04;20.50;97.00
13148;DHT22;6639;50.956;4.242;2023-04-24T14:16:31;19.90;97.40
13148;DHT22;6639;50.956;4.242;2023-04-24T14:19:01;19.90;98.00
13148;DHT22;6639;50.956;4.242;2023-04-24T14:21:28;19.90;97.90
13148;DHT22;6639;50.956;4.242;2023-04-24T14:23:55;19.80;98.70
13148;DHT22;6639;50.956;4.242;2023-04-24T14:26:22;19.70;97.80
13148;DHT22;6639;50.956;4.242;2023-04-24T14:28:50;19.60;97.50
13148;DHT22;6639;50.956;4.242;2023-04-24T14:31:19;19.70;98.10
13148;DHT22;6639;50.956;4.242;2023-04-24T14:33:49;19.90;97.80
13148;DHT22;6639;50.956;4.242;2023-04-24T14:36:16;19.60;98.10
13148;DHT22;6639;50.956;4.242;2023-04-24T14:38:46;19.50;98.40
13148;DHT22;6639;50.956;4.242;2023-04-24T14:41:16;19.60;98.30
13148;DHT22;6639;50.956;4.242;2023-04-24T14:43:44;19.70;98.10
13148;DHT22;6639;50.956;4.242;2023-04-24T14:46:11;19.80;97.60
13148;DHT22;6639;50.956;4.242;2023-04-24T14:48:39;19.80;97.10
13148;DHT22;6639;50.956;4.242;2023-04-24T14:51:07;19.60;97.60
13148;DHT22;6639;50.956;4.242;2023-04-24T14:53:34;19.60;97.80
13148;DHT22;6639;50.956;4.242;2023-04-24T14:56:01;19.50;97.70
13148;DHT22;6639;50.956;4.242;2023-04-24T14:58:28;19.20;98.30
13148;DHT22;6639;50.956;4.242;2023-04-24T15:00:55;18.70;98.00
13148;DHT22;6639;50.956;4.242;2023-04-24T15:03:27;18.50;98.20
13148;DHT22;6639;50.956;4.242;2023-04-24T15:05:56;18.60;98.40
13148;DHT22;6639;50.956;4.242;2023-04-24T15:08:23;18.10;97.90
13148;DHT22;6639;50.956;4.242;2023-04-24T15:10:51;17.70;98.50
13148;DHT22;6639;50.956;4.242;2023-04-24T15:13:20;18.00;98.50
13148;DHT22;6639;50.956;4.242;2023-04-24T15:15:50;18.20;98.70
13148;DHT22;6639;50.956;4.242;2023-04-24T15:18:17;18.40;99.30
13148;DHT22;6639;50.956;4.242;2023-04-24T15:20:44;18.60;99.30
13148;DHT22;6639;50.956;4.242;2023-04-24T15:23:13;18.80;99.10
13148;DHT22;6639;50.956;4.242;2023-04-24T15:25:40;19.00;98.80
13148;DHT22;6639;50.956;4.242;2023-04-24T15:28:09;18.50;99.40
13148;DHT22;6639;50.956;4.242;2023-04-24T15:30:39;18.60;98.80
13148;DHT22;6639;50.956;4.242;2023-04-24T15:33:09;18.90;99.10
13148;DHT22;6639;50.956;4.242;2023-04-24T15:35:36;19.20;98.70
13148;DHT22;6639;50.956;4.242;2023-04-24T15:38:03;18.90;98.00
13148;DHT22;6639;50.956;4.242;2023-04-24T15:40:32;18.80;98.70
13148;DHT22;6639;50.956;4.242;2023-04-24T15:42:59;18.60;98.20
13148;DHT22;6639;50.956;4.242;2023-04-24T15:45:26;18.40;98.70
13148;DHT22;6639;50.956;4.242;2023-04-24T15:47:53;18.20;98.70
13148;DHT22;6639;50.956;4.242;2023-04-24T15:50:21;18.30;98.60